Meteo Giornale » Osservazioni meteo Stati Uniti (USA) » New York City Central Park

ore: 06:51 - Osservazioni Meteo New York City Central Park
Lat. 40° 47' N Lon. 73° 58' W Alt. 47 metri s.l.m.

sereno America/New_York

25 °C

Sereno

Temp. 24 Ore

22 °C

29 °C

Nord-Ovest

9.3 Km/h

Dew point 19 °C

Umidità 69 %

Visibilità  11 Km

Il sole sorge alle ore 06:06

Il sole tramonta alle ore 19:53

Data e Ora Cielo e Fenomeni T °C DP °C Um. % Pres. hPa Vis. km Vento km/h
Oggi h: 06:51 sereno Sereno 25 19 69 1018 11 NO 9.3
Oggi h: 05:51 sereno Sereno 24 21 83 1017 13 N 5.5
Oggi h: 04:51 sereno Sereno 24 21 83 1017 13 N 0
Oggi h: 03:51 sereno Sereno 26 21 73 1016 13 O 7.4
Oggi h: 02:51 sereno Sereno 26 21 73 1016 13 N 5.5
Oggi h: 01:51 sereno Sereno 26 21 73 1016 14 N 0
Oggi h: 00:51 sereno Sereno 27 21 69 1016 14 N 0
Ieri h: 23:51 sereno Sereno 27 21 69 1016 14 N 0
Ieri h: 22:51 sereno Sereno 28 21 65 1016 14 N 5.5
Ieri h: 21:51 sereno Sereno 28 21 65 1016 14 N 7.4
Ieri h: 20:51 poco_nuvoloso Poco Nuvoloso 28 20 61 1015 10 N 0
Ieri h: 19:51 sereno Sereno 28 19 58 1014 14 O 14.8
Ieri h: 18:51 sereno Sereno 29 18 51 1014 13 O/NO 11.1
Ieri h: 17:51 sereno Sereno 29 19 54 1014 14 O/NO 9.3
Ieri h: 16:51 sereno Sereno 29 18 51 1013 14 N 9.3
Ieri h: 15:51 nuvoloso Nuvoloso 29 18 51 1013 14 O 11.1
Ieri h: 14:51 poco_nuvoloso Poco Nuvoloso 29 18 51 1014 14 N 7.4
Ieri h: 13:51 sereno Sereno 29 19 54 1014 14 N 5.5
Ieri h: 12:51 sereno Sereno 29 19 54 1014 14 N 7.4
Ieri h: 11:51 sereno Sereno 28 19 58 1014 10 N 9.3
Ieri h: 10:51 sereno Sereno 27 19 61 1014 10 N 9.3
Ieri h: 09:51 sereno Sereno 24 20 78 1013 10 N 0
Ieri h: 08:51 poco_nuvoloso Poco Nuvoloso 24 19 73 1013 10 O 11.1
Ieri h: 07:51 sereno Sereno 22 19 83 1013 10 O/NO 7.4